Griffin, IN

2:36 AM CDT on July 28, 2016 (GMT -0500)
Old Plank Rd N | | Change Station

Elev 482 ft 38.11 °N, 87.93 °W | Updated 40 seconds ago

Mostly Cloudy
Mostly Cloudy
74.0 °F
Feels Like 71 °F
N
0.0
Wind Variable Wind from SSE
Gusts 7.0 mph

Today
High -- | Low -- °F
--% Chance of Precip.
Yesterday
High -- | Low -- °F
Precip. -- in
Pressure 29.92 in
Visibility 10.0 miles
Clouds Scattered Clouds 6500 ft
Mostly Cloudy 9000 ft
Mostly Cloudy 11000 ft
Heat Index 71 °F
Dew Point 73 °F
Humidity 96%
Rainfall 0.00 in
Snow Depth Not available.
5:51 AM 8:04 PM
Waning Crescent, 35% visible
METAR KCUL 280715Z AUTO 00000KT 10SM SCT065 BKN090 BKN110 23/23 A2992 RMK AO2 T02280228
Pressure 29.92 in
Visibility 10.0 miles
Clouds Scattered Clouds 6500 ft
Mostly Cloudy 9000 ft
Mostly Cloudy 11000 ft
Heat Index 71 °F
Dew Point 73 °F
Humidity 96%
Rainfall 0.00 in
Snow Depth Not available.
5:51 AM 8:04 PM
Waning Crescent, 35% visible
METAR KCUL 280715Z AUTO 00000KT 10SM SCT065 BKN090 BKN110 23/23 A2992 RMK AO2 T02280228

10-Day Weather Forecast

Almanac

Astronomy

Jul. 28, 2016 Rise Set
Actual Time
Civil Twilight
Nautical Twilight
Astronomical Twilight
Moon
Length of Visible Light
Length of Day
Tomorrow will be .
, % of the Moon is Illuminated

Today's Extremes

State Highs State Lows

Community

WunderPhotos

Upload Photos

1,928,070 photos uploaded!

WunderBlog® & News

Nearby

Air Quality

  Air Quality AQ Index Pollutant
Not available.

Snow Depth

Station Depth Elevation

Earthquake Activity

City Distance Mag. Time & Date
Minimum magnitude displayed is 2.5.

Coastal Water Temperatures

Place Temperature

Stations

Nearby Weather Stations

Station Location Temp. Windchill Dew Point Humidity Wind Precip. Elev Updated Type
                   

Watches & Warnings

There are currently no watches in effect.